sensor_id;sensor_type;location;lat;lon;timestamp;P1;durP1;ratioP1;P2;durP2;ratioP2
36497;SDS011;22513;51.222;6.480;2022-11-30T00:00:13;436.63;;;62.53;;
36497;SDS011;22513;51.222;6.480;2022-11-30T00:02:39;468.75;;;62.80;;
36497;SDS011;22513;51.222;6.480;2022-11-30T00:05:05;453.05;;;65.38;;
36497;SDS011;22513;51.222;6.480;2022-11-30T00:07:32;441.42;;;63.42;;
36497;SDS011;22513;51.222;6.480;2022-11-30T00:09:57;422.08;;;60.80;;
36497;SDS011;22513;51.222;6.480;2022-11-30T00:12:23;415.73;;;62.45;;
36497;SDS011;22513;51.222;6.480;2022-11-30T00:14:48;438.05;;;64.60;;
36497;SDS011;22513;51.222;6.480;2022-11-30T00:17:14;442.83;;;64.32;;
36497;SDS011;22513;51.222;6.480;2022-11-30T00:19:41;442.45;;;64.47;;
36497;SDS011;22513;51.222;6.480;2022-11-30T00:22:07;403.70;;;59.20;;
36497;SDS011;22513;51.222;6.480;2022-11-30T00:24:32;414.33;;;62.60;;
36497;SDS011;22513;51.222;6.480;2022-11-30T00:26:58;415.95;;;64.70;;
36497;SDS011;22513;51.222;6.480;2022-11-30T00:29:23;421.58;;;65.03;;
36497;SDS011;22513;51.222;6.480;2022-11-30T00:31:49;417.75;;;66.13;;
36497;SDS011;22513;51.222;6.480;2022-11-30T00:34:14;387.17;;;57.80;;
36497;SDS011;22513;51.222;6.480;2022-11-30T00:36:40;425.73;;;62.47;;
36497;SDS011;22513;51.222;6.480;2022-11-30T00:39:05;447.85;;;66.43;;
36497;SDS011;22513;51.222;6.480;2022-11-30T00:41:31;394.52;;;64.63;;
36497;SDS011;22513;51.222;6.480;2022-11-30T00:43:57;460.60;;;66.82;;
36497;SDS011;22513;51.222;6.480;2022-11-30T00:46:22;437.10;;;66.68;;
36497;SDS011;22513;51.222;6.480;2022-11-30T00:48:48;435.30;;;65.15;;
36497;SDS011;22513;51.222;6.480;2022-11-30T00:51:13;413.23;;;63.03;;
36497;SDS011;22513;51.222;6.480;2022-11-30T00:53:39;447.80;;;66.70;;
36497;SDS011;22513;51.222;6.480;2022-11-30T00:56:05;414.50;;;57.28;;
36497;SDS011;22513;51.222;6.480;2022-11-30T00:58:32;410.70;;;62.38;;
36497;SDS011;22513;51.222;6.480;2022-11-30T01:00:58;445.58;;;65.00;;
36497;SDS011;22513;51.222;6.480;2022-11-30T01:03:24;437.73;;;62.80;;
36497;SDS011;22513;51.222;6.480;2022-11-30T01:05:49;446.70;;;66.22;;
36497;SDS011;22513;51.222;6.480;2022-11-30T01:08:15;470.45;;;67.85;;
36497;SDS011;22513;51.222;6.480;2022-11-30T01:10:41;461.27;;;67.00;;
36497;SDS011;22513;51.222;6.480;2022-11-30T01:13:08;515.50;;;69.60;;
36497;SDS011;22513;51.222;6.480;2022-11-30T01:15:36;490.42;;;68.93;;
36497;SDS011;22513;51.222;6.480;2022-11-30T01:18:03;421.63;;;64.78;;
36497;SDS011;22513;51.222;6.480;2022-11-30T01:20:29;439.60;;;65.07;;
36497;SDS011;22513;51.222;6.480;2022-11-30T01:22:55;436.70;;;65.55;;
36497;SDS011;22513;51.222;6.480;2022-11-30T01:25:21;592.83;;;73.05;;
36497;SDS011;22513;51.222;6.480;2022-11-30T01:27:47;481.15;;;65.05;;
36497;SDS011;22513;51.222;6.480;2022-11-30T01:30:13;522.53;;;68.93;;
36497;SDS011;22513;51.222;6.480;2022-11-30T01:32:39;420.80;;;63.25;;
36497;SDS011;22513;51.222;6.480;2022-11-30T01:35:05;444.30;;;65.47;;
36497;SDS011;22513;51.222;6.480;2022-11-30T01:37:32;438.13;;;64.20;;
36497;SDS011;22513;51.222;6.480;2022-11-30T01:39:57;445.58;;;67.90;;
36497;SDS011;22513;51.222;6.480;2022-11-30T01:42:23;442.92;;;63.17;;
36497;SDS011;22513;51.222;6.480;2022-11-30T01:44:55;481.45;;;68.07;;
36497;SDS011;22513;51.222;6.480;2022-11-30T01:50:40;511.00;;;68.55;;
36497;SDS011;22513;51.222;6.480;2022-11-30T01:52:50;440.55;;;62.05;;
36497;SDS011;22513;51.222;6.480;2022-11-30T01:55:29;400.42;;;60.33;;
36497;SDS011;22513;51.222;6.480;2022-11-30T02:00:27;528.47;;;67.75;;
36497;SDS011;22513;51.222;6.480;2022-11-30T02:05:46;488.33;;;67.60;;
36497;SDS011;22513;51.222;6.480;2022-11-30T02:08:13;503.67;;;66.93;;
36497;SDS011;22513;51.222;6.480;2022-11-30T02:10:40;639.10;;;76.97;;
36497;SDS011;22513;51.222;6.480;2022-11-30T02:16:24;504.80;;;65.80;;
36497;SDS011;22513;51.222;6.480;2022-11-30T02:19:16;551.78;;;70.32;;
36497;SDS011;22513;51.222;6.480;2022-11-30T02:24:52;503.30;;;62.20;;
36497;SDS011;22513;51.222;6.480;2022-11-30T02:30:21;502.17;;;66.97;;
36497;SDS011;22513;51.222;6.480;2022-11-30T02:32:49;506.73;;;64.40;;
36497;SDS011;22513;51.222;6.480;2022-11-30T02:35:35;501.23;;;62.92;;
36497;SDS011;22513;51.222;6.480;2022-11-30T02:38:04;487.60;;;64.75;;
36497;SDS011;22513;51.222;6.480;2022-11-30T02:40:30;490.80;;;65.18;;
36497;SDS011;22513;51.222;6.480;2022-11-30T02:42:56;614.38;;;72.10;;
36497;SDS011;22513;51.222;6.480;2022-11-30T02:45:30;672.08;;;76.68;;
36497;SDS011;22513;51.222;6.480;2022-11-30T02:48:08;508.55;;;65.07;;
36497;SDS011;22513;51.222;6.480;2022-11-30T02:50:55;556.92;;;65.13;;
36497;SDS011;22513;51.222;6.480;2022-11-30T02:53:24;588.85;;;68.35;;
36497;SDS011;22513;51.222;6.480;2022-11-30T02:55:51;563.78;;;70.50;;
36497;SDS011;22513;51.222;6.480;2022-11-30T02:58:18;499.00;;;67.03;;
36497;SDS011;22513;51.222;6.480;2022-11-30T03:00:44;533.58;;;67.25;;
36497;SDS011;22513;51.222;6.480;2022-11-30T03:03:10;451.42;;;64.60;;
36497;SDS011;22513;51.222;6.480;2022-11-30T03:05:35;325.58;;;48.95;;
36497;SDS011;22513;51.222;6.480;2022-11-30T03:08:01;322.50;;;53.65;;
36497;SDS011;22513;51.222;6.480;2022-11-30T03:10:26;300.67;;;49.17;;
36497;SDS011;22513;51.222;6.480;2022-11-30T03:12:55;239.07;;;43.60;;
36497;SDS011;22513;51.222;6.480;2022-11-30T03:15:22;181.48;;;36.55;;
36497;SDS011;22513;51.222;6.480;2022-11-30T03:17:47;172.25;;;38.67;;
36497;SDS011;22513;51.222;6.480;2022-11-30T03:20:13;181.77;;;41.63;;
36497;SDS011;22513;51.222;6.480;2022-11-30T03:22:38;152.68;;;35.83;;
36497;SDS011;22513;51.222;6.480;2022-11-30T03:25:04;167.85;;;38.63;;
36497;SDS011;22513;51.222;6.480;2022-11-30T03:27:30;177.70;;;41.33;;
36497;SDS011;22513;51.222;6.480;2022-11-30T03:29:55;180.90;;;41.95;;
36497;SDS011;22513;51.222;6.480;2022-11-30T03:32:21;141.52;;;33.15;;
36497;SDS011;22513;51.222;6.480;2022-11-30T03:34:47;150.30;;;37.65;;
36497;SDS011;22513;51.222;6.480;2022-11-30T03:37:12;167.40;;;36.60;;
36497;SDS011;22513;51.222;6.480;2022-11-30T03:39:38;167.13;;;37.78;;
36497;SDS011;22513;51.222;6.480;2022-11-30T03:42:03;194.30;;;41.28;;
36497;SDS011;22513;51.222;6.480;2022-11-30T03:44:29;171.85;;;37.42;;
36497;SDS011;22513;51.222;6.480;2022-11-30T03:46:54;182.82;;;41.33;;
36497;SDS011;22513;51.222;6.480;2022-11-30T03:49:20;186.73;;;43.95;;
36497;SDS011;22513;51.222;6.480;2022-11-30T03:51:46;188.45;;;44.35;;
36497;SDS011;22513;51.222;6.480;2022-11-30T03:54:11;153.80;;;35.75;;
36497;SDS011;22513;51.222;6.480;2022-11-30T03:56:37;172.23;;;36.58;;
36497;SDS011;22513;51.222;6.480;2022-11-30T03:59:02;187.15;;;41.33;;
36497;SDS011;22513;51.222;6.480;2022-11-30T04:01:28;178.70;;;41.40;;
36497;SDS011;22513;51.222;6.480;2022-11-30T04:03:53;166.32;;;36.38;;
36497;SDS011;22513;51.222;6.480;2022-11-30T04:06:19;186.65;;;41.92;;
36497;SDS011;22513;51.222;6.480;2022-11-30T04:08:46;183.80;;;44.10;;
36497;SDS011;22513;51.222;6.480;2022-11-30T04:11:11;190.43;;;44.13;;
36497;SDS011;22513;51.222;6.480;2022-11-30T04:13:38;192.07;;;43.08;;
36497;SDS011;22513;51.222;6.480;2022-11-30T04:16:04;186.02;;;42.53;;
36497;SDS011;22513;51.222;6.480;2022-11-30T04:18:30;215.95;;;43.63;;
36497;SDS011;22513;51.222;6.480;2022-11-30T04:20:57;188.75;;;41.42;;
36497;SDS011;22513;51.222;6.480;2022-11-30T04:23:24;187.35;;;37.25;;
36497;SDS011;22513;51.222;6.480;2022-11-30T04:25:53;195.75;;;45.03;;
36497;SDS011;22513;51.222;6.480;2022-11-30T04:28:20;190.90;;;43.35;;
36497;SDS011;22513;51.222;6.480;2022-11-30T04:30:46;199.15;;;43.83;;
36497;SDS011;22513;51.222;6.480;2022-11-30T04:33:12;214.50;;;46.40;;
36497;SDS011;22513;51.222;6.480;2022-11-30T04:35:40;217.13;;;50.08;;
36497;SDS011;22513;51.222;6.480;2022-11-30T04:38:07;213.73;;;42.00;;
36497;SDS011;22513;51.222;6.480;2022-11-30T04:40:33;164.00;;;39.10;;
36497;SDS011;22513;51.222;6.480;2022-11-30T04:42:59;194.40;;;45.13;;
36497;SDS011;22513;51.222;6.480;2022-11-30T04:45:24;210.93;;;45.25;;
36497;SDS011;22513;51.222;6.480;2022-11-30T04:47:50;204.35;;;44.80;;
36497;SDS011;22513;51.222;6.480;2022-11-30T04:50:15;206.02;;;45.53;;
36497;SDS011;22513;51.222;6.480;2022-11-30T04:52:41;206.95;;;48.47;;
36497;SDS011;22513;51.222;6.480;2022-11-30T04:55:07;188.93;;;40.65;;
36497;SDS011;22513;51.222;6.480;2022-11-30T04:57:32;190.70;;;43.10;;
36497;SDS011;22513;51.222;6.480;2022-11-30T04:59:58;203.07;;;42.92;;
36497;SDS011;22513;51.222;6.480;2022-11-30T05:02:24;183.85;;;46.10;;
36497;SDS011;22513;51.222;6.480;2022-11-30T05:04:49;202.90;;;44.92;;
36497;SDS011;22513;51.222;6.480;2022-11-30T05:07:15;189.15;;;46.45;;
36497;SDS011;22513;51.222;6.480;2022-11-30T05:09:40;196.23;;;44.35;;
36497;SDS011;22513;51.222;6.480;2022-11-30T05:12:06;193.18;;;46.50;;
36497;SDS011;22513;51.222;6.480;2022-11-30T05:14:31;184.77;;;47.25;;
36497;SDS011;22513;51.222;6.480;2022-11-30T05:16:57;189.52;;;46.00;;
36497;SDS011;22513;51.222;6.480;2022-11-30T05:19:23;205.38;;;48.30;;
36497;SDS011;22513;51.222;6.480;2022-11-30T05:21:48;196.85;;;48.97;;
36497;SDS011;22513;51.222;6.480;2022-11-30T05:24:14;180.43;;;47.95;;
36497;SDS011;22513;51.222;6.480;2022-11-30T05:26:39;193.35;;;45.05;;
36497;SDS011;22513;51.222;6.480;2022-11-30T05:29:05;190.93;;;47.38;;
36497;SDS011;22513;51.222;6.480;2022-11-30T05:31:31;190.20;;;47.15;;
36497;SDS011;22513;51.222;6.480;2022-11-30T05:33:57;194.75;;;49.30;;
36497;SDS011;22513;51.222;6.480;2022-11-30T05:36:23;184.05;;;46.17;;
36497;SDS011;22513;51.222;6.480;2022-11-30T05:38:49;192.43;;;47.80;;
36497;SDS011;22513;51.222;6.480;2022-11-30T05:41:14;153.32;;;36.80;;
36497;SDS011;22513;51.222;6.480;2022-11-30T05:43:40;173.07;;;41.30;;
36497;SDS011;22513;51.222;6.480;2022-11-30T05:46:06;168.90;;;44.30;;
36497;SDS011;22513;51.222;6.480;2022-11-30T05:48:33;172.32;;;45.25;;
36497;SDS011;22513;51.222;6.480;2022-11-30T05:51:03;161.95;;;42.25;;
36497;SDS011;22513;51.222;6.480;2022-11-30T05:53:47;183.27;;;48.28;;
36497;SDS011;22513;51.222;6.480;2022-11-30T05:56:14;167.13;;;45.25;;
36497;SDS011;22513;51.222;6.480;2022-11-30T05:58:42;164.32;;;42.92;;
36497;SDS011;22513;51.222;6.480;2022-11-30T06:01:15;165.43;;;42.03;;
36497;SDS011;22513;51.222;6.480;2022-11-30T06:03:45;152.27;;;40.35;;
36497;SDS011;22513;51.222;6.480;2022-11-30T06:06:11;166.55;;;42.67;;
36497;SDS011;22513;51.222;6.480;2022-11-30T06:08:36;167.50;;;42.45;;
36497;SDS011;22513;51.222;6.480;2022-11-30T06:11:02;151.57;;;42.53;;
36497;SDS011;22513;51.222;6.480;2022-11-30T06:13:28;165.10;;;43.55;;
36497;SDS011;22513;51.222;6.480;2022-11-30T06:15:57;156.27;;;39.83;;
36497;SDS011;22513;51.222;6.480;2022-11-30T06:18:24;158.18;;;41.60;;
36497;SDS011;22513;51.222;6.480;2022-11-30T06:20:49;172.25;;;43.78;;
36497;SDS011;22513;51.222;6.480;2022-11-30T06:23:15;164.27;;;44.63;;
36497;SDS011;22513;51.222;6.480;2022-11-30T06:25:40;116.70;;;37.67;;
36497;SDS011;22513;51.222;6.480;2022-11-30T06:28:09;138.10;;;42.33;;
36497;SDS011;22513;51.222;6.480;2022-11-30T06:30:35;116.13;;;40.55;;
36497;SDS011;22513;51.222;6.480;2022-11-30T06:33:01;119.10;;;40.95;;
36497;SDS011;22513;51.222;6.480;2022-11-30T06:35:27;108.90;;;36.20;;
36497;SDS011;22513;51.222;6.480;2022-11-30T06:37:53;129.07;;;43.10;;
36497;SDS011;22513;51.222;6.480;2022-11-30T06:40:19;119.97;;;39.42;;
36497;SDS011;22513;51.222;6.480;2022-11-30T06:42:44;136.80;;;44.55;;
36497;SDS011;22513;51.222;6.480;2022-11-30T06:45:10;135.23;;;43.17;;
36497;SDS011;22513;51.222;6.480;2022-11-30T06:47:36;124.50;;;42.47;;
36497;SDS011;22513;51.222;6.480;2022-11-30T06:50:02;137.50;;;40.70;;
36497;SDS011;22513;51.222;6.480;2022-11-30T06:52:29;140.88;;;41.65;;
36497;SDS011;22513;51.222;6.480;2022-11-30T06:54:55;133.18;;;39.25;;
36497;SDS011;22513;51.222;6.480;2022-11-30T06:57:25;130.98;;;41.35;;
36497;SDS011;22513;51.222;6.480;2022-11-30T06:59:54;129.82;;;43.58;;
36497;SDS011;22513;51.222;6.480;2022-11-30T07:02:20;135.30;;;40.58;;
36497;SDS011;22513;51.222;6.480;2022-11-30T07:04:46;127.43;;;39.30;;
36497;SDS011;22513;51.222;6.480;2022-11-30T07:07:11;128.68;;;39.80;;
36497;SDS011;22513;51.222;6.480;2022-11-30T07:09:37;130.30;;;40.13;;
36497;SDS011;22513;51.222;6.480;2022-11-30T07:12:02;132.88;;;40.38;;
36497;SDS011;22513;51.222;6.480;2022-11-30T07:16:58;127.03;;;43.13;;
36497;SDS011;22513;51.222;6.480;2022-11-30T07:19:23;128.63;;;40.30;;
36497;SDS011;22513;51.222;6.480;2022-11-30T07:21:49;128.65;;;41.05;;
36497;SDS011;22513;51.222;6.480;2022-11-30T07:24:14;143.90;;;44.88;;
36497;SDS011;22513;51.222;6.480;2022-11-30T07:26:59;134.30;;;41.60;;
36497;SDS011;22513;51.222;6.480;2022-11-30T07:29:26;129.15;;;41.22;;
36497;SDS011;22513;51.222;6.480;2022-11-30T07:31:52;145.27;;;44.25;;
36497;SDS011;22513;51.222;6.480;2022-11-30T07:34:19;138.98;;;43.85;;
36497;SDS011;22513;51.222;6.480;2022-11-30T07:36:44;143.07;;;43.55;;
36497;SDS011;22513;51.222;6.480;2022-11-30T07:39:11;158.80;;;47.22;;
36497;SDS011;22513;51.222;6.480;2022-11-30T07:41:39;161.45;;;44.92;;
36497;SDS011;22513;51.222;6.480;2022-11-30T07:44:05;160.85;;;49.33;;
36497;SDS011;22513;51.222;6.480;2022-11-30T07:46:32;164.38;;;42.88;;
36497;SDS011;22513;51.222;6.480;2022-11-30T07:49:03;163.90;;;47.65;;
36497;SDS011;22513;51.222;6.480;2022-11-30T07:51:33;169.05;;;46.00;;
36497;SDS011;22513;51.222;6.480;2022-11-30T07:53:59;159.55;;;45.90;;
36497;SDS011;22513;51.222;6.480;2022-11-30T07:56:25;162.88;;;48.53;;
36497;SDS011;22513;51.222;6.480;2022-11-30T07:58:56;167.50;;;47.83;;
36497;SDS011;22513;51.222;6.480;2022-11-30T08:01:24;172.43;;;51.17;;
36497;SDS011;22513;51.222;6.480;2022-11-30T08:03:52;164.87;;;49.97;;
36497;SDS011;22513;51.222;6.480;2022-11-30T08:06:19;155.57;;;46.35;;
36497;SDS011;22513;51.222;6.480;2022-11-30T08:08:47;155.25;;;44.92;;
36497;SDS011;22513;51.222;6.480;2022-11-30T08:11:15;150.93;;;46.78;;
36497;SDS011;22513;51.222;6.480;2022-11-30T08:13:42;134.15;;;42.30;;
36497;SDS011;22513;51.222;6.480;2022-11-30T08:16:10;144.15;;;43.25;;
36497;SDS011;22513;51.222;6.480;2022-11-30T08:18:37;146.00;;;45.63;;
36497;SDS011;22513;51.222;6.480;2022-11-30T08:21:04;148.27;;;45.60;;
36497;SDS011;22513;51.222;6.480;2022-11-30T08:23:32;163.38;;;48.60;;
36497;SDS011;22513;51.222;6.480;2022-11-30T08:26:10;155.25;;;47.22;;
36497;SDS011;22513;51.222;6.480;2022-11-30T08:28:41;158.48;;;45.10;;
36497;SDS011;22513;51.222;6.480;2022-11-30T08:31:08;151.18;;;47.72;;
36497;SDS011;22513;51.222;6.480;2022-11-30T08:33:42;154.13;;;45.50;;
36497;SDS011;22513;51.222;6.480;2022-11-30T08:36:12;155.52;;;46.78;;
36497;SDS011;22513;51.222;6.480;2022-11-30T08:38:45;149.25;;;47.28;;
36497;SDS011;22513;51.222;6.480;2022-11-30T08:41:12;162.93;;;47.05;;
36497;SDS011;22513;51.222;6.480;2022-11-30T08:43:39;162.73;;;44.50;;
36497;SDS011;22513;51.222;6.480;2022-11-30T08:46:06;146.35;;;46.05;;
36497;SDS011;22513;51.222;6.480;2022-11-30T08:48:35;153.82;;;42.42;;
36497;SDS011;22513;51.222;6.480;2022-11-30T08:51:01;141.40;;;46.00;;
36497;SDS011;22513;51.222;6.480;2022-11-30T08:53:28;113.15;;;34.97;;
36497;SDS011;22513;51.222;6.480;2022-11-30T08:55:58;140.88;;;42.20;;
36497;SDS011;22513;51.222;6.480;2022-11-30T08:58:25;143.77;;;42.58;;
36497;SDS011;22513;51.222;6.480;2022-11-30T09:00:53;136.20;;;39.75;;
36497;SDS011;22513;51.222;6.480;2022-11-30T09:03:19;135.60;;;41.00;;
36497;SDS011;22513;51.222;6.480;2022-11-30T09:05:45;141.48;;;41.08;;
36497;SDS011;22513;51.222;6.480;2022-11-30T09:08:10;115.97;;;37.65;;
36497;SDS011;22513;51.222;6.480;2022-11-30T09:10:36;133.55;;;41.90;;
36497;SDS011;22513;51.222;6.480;2022-11-30T09:13:02;119.25;;;41.30;;
36497;SDS011;22513;51.222;6.480;2022-11-30T09:15:27;97.47;;;30.45;;
36497;SDS011;22513;51.222;6.480;2022-11-30T09:17:53;122.93;;;39.90;;
36497;SDS011;22513;51.222;6.480;2022-11-30T09:20:19;119.57;;;40.58;;
36497;SDS011;22513;51.222;6.480;2022-11-30T09:22:44;119.72;;;42.17;;
36497;SDS011;22513;51.222;6.480;2022-11-30T09:25:10;116.20;;;41.05;;
36497;SDS011;22513;51.222;6.480;2022-11-30T09:27:35;113.63;;;37.55;;
36497;SDS011;22513;51.222;6.480;2022-11-30T09:30:01;113.65;;;40.53;;
36497;SDS011;22513;51.222;6.480;2022-11-30T09:32:27;111.80;;;40.33;;
36497;SDS011;22513;51.222;6.480;2022-11-30T09:34:53;111.10;;;38.83;;
36497;SDS011;22513;51.222;6.480;2022-11-30T09:37:19;99.38;;;34.65;;
36497;SDS011;22513;51.222;6.480;2022-11-30T09:39:46;105.28;;;38.72;;
36497;SDS011;22513;51.222;6.480;2022-11-30T09:42:23;113.25;;;37.85;;
36497;SDS011;22513;51.222;6.480;2022-11-30T09:45:18;102.90;;;37.42;;
36497;SDS011;22513;51.222;6.480;2022-11-30T09:50:37;102.78;;;37.53;;
36497;SDS011;22513;51.222;6.480;2022-11-30T09:53:10;87.93;;;33.42;;
36497;SDS011;22513;51.222;6.480;2022-11-30T09:55:45;95.95;;;36.47;;
36497;SDS011;22513;51.222;6.480;2022-11-30T09:58:21;91.47;;;36.03;;
36497;SDS011;22513;51.222;6.480;2022-11-30T10:00:51;104.55;;;38.60;;
36497;SDS011;22513;51.222;6.480;2022-11-30T10:03:17;87.93;;;31.58;;
36497;SDS011;22513;51.222;6.480;2022-11-30T10:08:21;68.47;;;29.45;;
36497;SDS011;22513;51.222;6.480;2022-11-30T10:11:16;83.85;;;34.30;;
36497;SDS011;22513;51.222;6.480;2022-11-30T10:30:15;69.95;;;34.72;;
36497;SDS011;22513;51.222;6.480;2022-11-30T10:32:47;78.47;;;34.70;;
36497;SDS011;22513;51.222;6.480;2022-11-30T10:38:46;71.38;;;32.47;;
36497;SDS011;22513;51.222;6.480;2022-11-30T10:40:54;71.35;;;32.13;;
36497;SDS011;22513;51.222;6.480;2022-11-30T10:45:50;63.25;;;31.30;;
36497;SDS011;22513;51.222;6.480;2022-11-30T10:48:19;65.18;;;30.98;;
36497;SDS011;22513;51.222;6.480;2022-11-30T10:50:51;65.30;;;33.25;;
36497;SDS011;22513;51.222;6.480;2022-11-30T10:53:17;69.47;;;34.80;;
36497;SDS011;22513;51.222;6.480;2022-11-30T10:55:51;62.08;;;31.67;;
36497;SDS011;22513;51.222;6.480;2022-11-30T10:58:44;68.47;;;31.92;;
36497;SDS011;22513;51.222;6.480;2022-11-30T11:01:32;61.22;;;29.75;;
36497;SDS011;22513;51.222;6.480;2022-11-30T11:04:08;58.00;;;30.58;;
36497;SDS011;22513;51.222;6.480;2022-11-30T11:07:12;61.17;;;33.38;;
36497;SDS011;22513;51.222;6.480;2022-11-30T11:09:47;60.25;;;28.80;;
36497;SDS011;22513;51.222;6.480;2022-11-30T11:12:15;54.13;;;28.65;;
36497;SDS011;22513;51.222;6.480;2022-11-30T11:15:16;57.75;;;29.90;;
36497;SDS011;22513;51.222;6.480;2022-11-30T11:17:45;61.17;;;28.30;;
36497;SDS011;22513;51.222;6.480;2022-11-30T11:20:33;62.75;;;31.70;;
36497;SDS011;22513;51.222;6.480;2022-11-30T11:22:59;53.05;;;27.58;;
36497;SDS011;22513;51.222;6.480;2022-11-30T11:25:30;52.30;;;26.92;;
36497;SDS011;22513;51.222;6.480;2022-11-30T11:28:02;53.58;;;30.10;;
36497;SDS011;22513;51.222;6.480;2022-11-30T11:30:37;53.10;;;27.30;;
36497;SDS011;22513;51.222;6.480;2022-11-30T11:35:39;50.90;;;28.33;;
36497;SDS011;22513;51.222;6.480;2022-11-30T11:41:01;51.08;;;28.55;;
36497;SDS011;22513;51.222;6.480;2022-11-30T11:43:30;48.67;;;25.10;;
36497;SDS011;22513;51.222;6.480;2022-11-30T11:45:58;49.47;;;26.38;;
36497;SDS011;22513;51.222;6.480;2022-11-30T11:48:47;49.35;;;25.60;;
36497;SDS011;22513;51.222;6.480;2022-11-30T11:56:36;47.70;;;26.63;;
36497;SDS011;22513;51.222;6.480;2022-11-30T12:12:52;42.30;;;24.77;;
36497;SDS011;22513;51.222;6.480;2022-11-30T12:15:18;39.42;;;22.50;;
36497;SDS011;22513;51.222;6.480;2022-11-30T12:17:54;50.45;;;26.40;;
36497;SDS011;22513;51.222;6.480;2022-11-30T12:21:27;43.65;;;24.45;;
36497;SDS011;22513;51.222;6.480;2022-11-30T12:28:58;47.20;;;27.17;;
36497;SDS011;22513;51.222;6.480;2022-11-30T12:31:44;39.95;;;20.08;;
36497;SDS011;22513;51.222;6.480;2022-11-30T12:39:41;47.35;;;26.30;;
36497;SDS011;22513;51.222;6.480;2022-11-30T12:42:21;46.80;;;25.33;;
36497;SDS011;22513;51.222;6.480;2022-11-30T12:45:07;44.40;;;24.73;;
36497;SDS011;22513;51.222;6.480;2022-11-30T12:59:25;39.85;;;22.85;;
36497;SDS011;22513;51.222;6.480;2022-11-30T13:05:19;38.47;;;21.23;;
36497;SDS011;22513;51.222;6.480;2022-11-30T13:13:18;40.92;;;22.35;;
36497;SDS011;22513;51.222;6.480;2022-11-30T13:15:57;37.78;;;21.73;;
36497;SDS011;22513;51.222;6.480;2022-11-30T13:18:24;42.38;;;23.92;;
36497;SDS011;22513;51.222;6.480;2022-11-30T13:20:53;44.13;;;24.48;;
36497;SDS011;22513;51.222;6.480;2022-11-30T13:31:50;44.00;;;22.35;;
36497;SDS011;22513;51.222;6.480;2022-11-30T13:34:27;36.78;;;22.33;;
36497;SDS011;22513;51.222;6.480;2022-11-30T13:37:39;41.53;;;21.83;;
36497;SDS011;22513;51.222;6.480;2022-11-30T13:42:29;40.45;;;22.67;;
36497;SDS011;22513;51.222;6.480;2022-11-30T13:47:31;40.63;;;22.67;;
36497;SDS011;22513;51.222;6.480;2022-11-30T13:50:04;43.10;;;22.45;;
36497;SDS011;22513;51.222;6.480;2022-11-30T13:58:10;37.53;;;21.92;;
36497;SDS011;22513;51.222;6.480;2022-11-30T14:13:51;35.22;;;19.70;;
36497;SDS011;22513;51.222;6.480;2022-11-30T14:16:23;37.03;;;20.88;;
36497;SDS011;22513;51.222;6.480;2022-11-30T14:18:53;40.63;;;21.55;;
36497;SDS011;22513;51.222;6.480;2022-11-30T14:24:00;36.97;;;21.23;;
36497;SDS011;22513;51.222;6.480;2022-11-30T14:26:41;39.75;;;21.80;;
36497;SDS011;22513;51.222;6.480;2022-11-30T14:29:14;37.00;;;21.38;;
36497;SDS011;22513;51.222;6.480;2022-11-30T14:34:25;38.55;;;21.70;;
36497;SDS011;22513;51.222;6.480;2022-11-30T14:37:17;36.20;;;20.05;;
36497;SDS011;22513;51.222;6.480;2022-11-30T14:39:46;34.55;;;19.65;;
36497;SDS011;22513;51.222;6.480;2022-11-30T14:42:17;37.03;;;21.00;;
36497;SDS011;22513;51.222;6.480;2022-11-30T14:44:53;34.40;;;20.20;;
36497;SDS011;22513;51.222;6.480;2022-11-30T14:47:33;34.63;;;21.13;;
36497;SDS011;22513;51.222;6.480;2022-11-30T14:50:01;38.75;;;20.58;;
36497;SDS011;22513;51.222;6.480;2022-11-30T15:00:45;29.00;;;15.90;;
36497;SDS011;22513;51.222;6.480;2022-11-30T15:03:19;32.00;;;18.38;;
36497;SDS011;22513;51.222;6.480;2022-11-30T15:05:54;33.38;;;19.17;;
36497;SDS011;22513;51.222;6.480;2022-11-30T15:08:31;34.90;;;19.42;;
36497;SDS011;22513;51.222;6.480;2022-11-30T15:11:09;33.42;;;19.25;;
36497;SDS011;22513;51.222;6.480;2022-11-30T15:13:37;32.97;;;20.35;;
36497;SDS011;22513;51.222;6.480;2022-11-30T15:16:19;34.00;;;19.55;;
36497;SDS011;22513;51.222;6.480;2022-11-30T15:18:48;36.33;;;20.27;;
36497;SDS011;22513;51.222;6.480;2022-11-30T15:21:21;29.33;;;17.95;;
36497;SDS011;22513;51.222;6.480;2022-11-30T15:23:48;31.08;;;16.70;;
36497;SDS011;22513;51.222;6.480;2022-11-30T15:28:56;30.75;;;17.40;;
36497;SDS011;22513;51.222;6.480;2022-11-30T15:31:47;34.40;;;17.88;;
36497;SDS011;22513;51.222;6.480;2022-11-30T15:36:51;29.98;;;17.83;;
36497;SDS011;22513;51.222;6.480;2022-11-30T15:39:19;31.88;;;18.52;;
36497;SDS011;22513;51.222;6.480;2022-11-30T15:41:51;28.48;;;15.02;;
36497;SDS011;22513;51.222;6.480;2022-11-30T15:44:22;33.92;;;18.63;;
36497;SDS011;22513;51.222;6.480;2022-11-30T15:47:00;32.58;;;17.52;;
36497;SDS011;22513;51.222;6.480;2022-11-30T15:49:27;33.90;;;18.55;;
36497;SDS011;22513;51.222;6.480;2022-11-30T15:54:42;34.72;;;19.95;;
36497;SDS011;22513;51.222;6.480;2022-11-30T15:57:08;30.52;;;16.42;;
36497;SDS011;22513;51.222;6.480;2022-11-30T15:59:33;34.72;;;18.17;;
36497;SDS011;22513;51.222;6.480;2022-11-30T16:02:00;31.52;;;19.05;;
36497;SDS011;22513;51.222;6.480;2022-11-30T16:07:37;27.80;;;14.93;;
36497;SDS011;22513;51.222;6.480;2022-11-30T16:10:13;29.48;;;17.00;;
36497;SDS011;22513;51.222;6.480;2022-11-30T16:12:42;32.35;;;17.50;;
36497;SDS011;22513;51.222;6.480;2022-11-30T16:17:35;33.63;;;17.75;;
36497;SDS011;22513;51.222;6.480;2022-11-30T16:20:00;29.85;;;15.38;;
36497;SDS011;22513;51.222;6.480;2022-11-30T16:22:26;31.05;;;19.02;;
36497;SDS011;22513;51.222;6.480;2022-11-30T16:24:51;31.92;;;17.60;;
36497;SDS011;22513;51.222;6.480;2022-11-30T16:27:18;27.77;;;16.52;;
36497;SDS011;22513;51.222;6.480;2022-11-30T16:29:47;30.70;;;17.05;;
36497;SDS011;22513;51.222;6.480;2022-11-30T16:32:13;33.25;;;18.58;;
36497;SDS011;22513;51.222;6.480;2022-11-30T16:34:39;33.83;;;20.30;;
36497;SDS011;22513;51.222;6.480;2022-11-30T16:37:06;34.92;;;20.00;;
36497;SDS011;22513;51.222;6.480;2022-11-30T16:39:34;32.47;;;19.83;;
36497;SDS011;22513;51.222;6.480;2022-11-30T16:42:00;33.03;;;17.92;;
36497;SDS011;22513;51.222;6.480;2022-11-30T16:44:26;32.35;;;18.15;;
36497;SDS011;22513;51.222;6.480;2022-11-30T16:46:51;30.25;;;18.15;;
36497;SDS011;22513;51.222;6.480;2022-11-30T16:49:18;33.67;;;19.40;;
36497;SDS011;22513;51.222;6.480;2022-11-30T16:51:46;35.17;;;20.27;;
36497;SDS011;22513;51.222;6.480;2022-11-30T16:54:13;36.00;;;19.80;;
36497;SDS011;22513;51.222;6.480;2022-11-30T16:56:40;32.70;;;16.02;;
36497;SDS011;22513;51.222;6.480;2022-11-30T16:59:06;32.53;;;19.05;;
36497;SDS011;22513;51.222;6.480;2022-11-30T17:01:35;36.67;;;20.85;;
36497;SDS011;22513;51.222;6.480;2022-11-30T17:04:13;35.30;;;18.90;;
36497;SDS011;22513;51.222;6.480;2022-11-30T17:06:47;36.25;;;21.50;;